Terminal Aerodrome Forecast
Issued by NWS

Home | Current Version | Previous Version | Text Only | Print | Product List | Glossary Off
Versions: 1 2 3 4 5 6 7 8 9 10 11 12 13 14

000
FTUS43 KMPX 071100
TAFAXN
TAF
KAXN 071120Z 0712/0812 29007KT P6SM VCSH SCT050 BKN080
     FM071500 30010KT P6SM SCT040 BKN080
      TEMPO 0719/0723 3SM -TSRA OVC025CB
     FM080100 30008KT P6SM SCT250=

USA.gov is the U.S. government's official web portal to all federal, state and local government web resources and services.